Time;durP1;ratioP1;P1;durP2;ratioP2;P2;SDS_P1;SDS_P2;PMS_P1;PMS_P2;Temp;Humidity;BMP_temperature;BMP_pressure;BME280_temperature;BME280_humidity;BME280_pressure;Samples;Min_cycle;Max_cycle;Signal;HPM_P1;HPM_P2
2023/01/20 00:02:23;;;;;;;117.32;30.77;;;;;;;-0.28;100.00;101096.06;5257196;28;20473;-76
2023/01/20 00:04:54;;;;;;;133.13;32.60;;;;;;;-0.24;100.00;101096.72;5245390;28;20115;-76
2023/01/20 00:07:24;;;;;;;103.88;29.15;;;;;;;-0.22;100.00;101105.38;5251998;28;20028;-76
2023/01/20 00:09:55;;;;;;;105.68;27.48;;;;;;;-0.23;100.00;101101.91;5251128;28;20434;-76
2023/01/20 00:12:25;;;;;;;113.03;28.98;;;;;;;-0.20;100.00;101112.28;5244861;28;20024;-76
2023/01/20 00:14:55;;;;;;;105.28;29.27;;;;;;;-0.17;100.00;101109.44;5247408;28;20054;-76
2023/01/20 00:17:27;;;;;;;107.07;29.40;;;;;;;-0.14;100.00;101121.59;5243236;28;20028;-76
2023/01/20 00:19:57;;;;;;;104.45;27.90;;;;;;;-0.08;100.00;101123.88;5243628;28;20467;-76
2023/01/20 00:22:27;;;;;;;103.63;28.67;;;;;;;-0.09;100.00;101125.66;5244773;28;20016;-76
2023/01/20 00:24:58;;;;;;;109.20;29.58;;;;;;;-0.07;100.00;101128.19;5244974;28;20016;-76
2023/01/20 00:27:28;;;;;;;111.93;28.50;;;;;;;-0.08;100.00;101132.63;5244480;28;20036;-76
2023/01/20 00:29:59;;;;;;;113.57;28.38;;;;;;;-0.13;100.00;101125.94;5244195;28;20050;-76
2023/01/20 00:32:29;;;;;;;112.95;29.02;;;;;;;-0.17;100.00;101122.63;5243599;28;20507;-75
2023/01/20 00:35:00;;;;;;;106.60;28.38;;;;;;;-0.21;100.00;101122.88;5258085;28;20048;-75
2023/01/20 00:37:30;;;;;;;109.88;30.00;;;;;;;-0.24;100.00;101131.00;5244554;28;20392;-76
2023/01/20 00:40:01;;;;;;;115.47;29.13;;;;;;;-0.29;100.00;101133.91;5244731;28;20546;-75
2023/01/20 00:42:32;;;;;;;97.47;28.00;;;;;;;-0.29;100.00;101129.47;5243049;28;20020;-75
2023/01/20 00:45:03;;;;;;;105.25;28.42;;;;;;;-0.31;100.00;101136.59;5244863;28;20056;-75
2023/01/20 00:47:33;;;;;;;111.55;28.23;;;;;;;-0.30;100.00;101138.34;5244115;28;20042;-75
2023/01/20 00:50:04;;;;;;;103.82;27.75;;;;;;;-0.29;100.00;101137.38;5244554;28;20029;-76
2023/01/20 00:52:35;;;;;;;118.63;30.80;;;;;;;-0.24;100.00;101133.63;5242986;28;20028;-75
2023/01/20 00:55:05;;;;;;;107.03;28.52;;;;;;;-0.17;100.00;101146.34;5244290;28;20025;-75
2023/01/20 00:57:36;;;;;;;118.75;28.92;;;;;;;-0.11;100.00;101150.41;5248994;28;20028;-76
2023/01/20 01:00:07;;;;;;;107.22;30.48;;;;;;;-0.07;100.00;101147.50;5264414;28;20024;-76
2023/01/20 01:02:38;;;;;;;101.07;28.63;;;;;;;0.02;100.00;101158.47;5252423;28;20028;-76
2023/01/20 01:05:09;;;;;;;98.78;29.05;;;;;;;0.01;100.00;101154.13;5249837;28;20540;-76
2023/01/20 01:07:39;;;;;;;110.75;29.80;;;;;;;-0.02;100.00;101161.28;5253638;28;20115;-75
2023/01/20 01:10:10;;;;;;;103.35;28.38;;;;;;;-0.01;100.00;101154.22;5261353;28;20028;-76
2023/01/20 01:12:40;;;;;;;101.82;29.38;;;;;;;0.01;100.00;101154.13;5244361;28;20063;-75
2023/01/20 01:15:11;;;;;;;102.18;28.23;;;;;;;0.00;100.00;101153.28;5251146;28;20024;-76
2023/01/20 01:17:45;;;;;;;92.70;28.60;;;;;;;0.07;100.00;101161.69;5265058;28;20024;-76
2023/01/20 01:20:15;;;;;;;104.75;26.35;;;;;;;0.10;100.00;101164.13;5244780;28;20029;-76
2023/01/20 01:22:46;;;;;;;95.65;27.95;;;;;;;0.12;100.00;101176.28;5244206;28;20021;-76
2023/01/20 01:25:17;;;;;;;101.00;27.10;;;;;;;0.16;100.00;101180.44;5257851;28;20399;-76
2023/01/20 01:27:48;;;;;;;92.38;26.70;;;;;;;0.17;100.00;101181.31;5257245;28;20024;-76
2023/01/20 01:30:18;;;;;;;96.88;26.73;;;;;;;0.15;100.00;101173.50;5242666;28;20024;-76
2023/01/20 01:32:49;;;;;;;90.95;27.23;;;;;;;0.16;100.00;101190.16;5243734;28;20029;-76
2023/01/20 01:35:19;;;;;;;92.82;26.75;;;;;;;0.17;100.00;101186.56;5244392;28;20020;-76
2023/01/20 01:37:49;;;;;;;102.80;26.77;;;;;;;0.14;100.00;101195.50;5243855;28;20027;-76
2023/01/20 01:40:20;;;;;;;91.45;25.75;;;;;;;0.10;100.00;101191.38;5244369;28;20611;-76
2023/01/20 01:42:50;;;;;;;91.13;25.33;;;;;;;0.15;100.00;101191.94;5247630;28;20021;-76
2023/01/20 01:45:24;;;;;;;87.63;24.60;;;;;;;0.15;100.00;101193.72;5246754;28;20020;-76
2023/01/20 01:48:08;;;;;;;89.80;25.83;;;;;;;0.15;100.00;101194.59;5247370;28;20039;-76
2023/01/20 01:50:44;;;;;;;103.57;26.00;;;;;;;0.15;100.00;101199.00;5246844;28;20047;-76
2023/01/20 01:53:15;;;;;;;84.30;24.42;;;;;;;0.13;100.00;101212.28;5247505;28;20370;-77
2023/01/20 01:55:52;;;;;;;95.60;26.25;;;;;;;0.13;100.00;101207.00;5246519;28;20028;-76
2023/01/20 01:58:28;;;;;;;86.63;25.98;;;;;;;0.09;100.00;101210.75;5260089;28;20095;-76
2023/01/20 02:00:59;;;;;;;98.90;27.52;;;;;;;0.08;100.00;101203.78;5261167;28;20029;-76
2023/01/20 02:03:53;;;;;;;104.65;28.58;;;;;;;0.10;100.00;101206.34;5260228;28;20016;-76
2023/01/20 02:06:28;;;;;;;94.43;24.92;;;;;;;0.13;100.00;101214.91;5247605;28;20039;-76
2023/01/20 02:09:10;;;;;;;95.43;23.63;;;;;;;0.14;100.00;101205.22;5247692;28;20017;-76
2023/01/20 02:11:50;;;;;;;91.75;27.17;;;;;;;0.08;100.00;101210.84;5247291;28;20032;-76
2023/01/20 02:14:25;;;;;;;111.35;26.20;;;;;;;0.08;100.00;101213.50;5247457;28;20040;-76
2023/01/20 02:17:19;;;;;;;103.83;26.53;;;;;;;0.09;100.00;101205.47;5258936;28;20024;-76
2023/01/20 02:20:17;;;;;;;98.53;25.67;;;;;;;0.11;100.00;101213.31;5247263;28;20038;-76
2023/01/20 02:23:29;;;;;;;89.85;24.92;;;;;;;0.11;100.00;101208.91;5246432;28;20028;-76
2023/01/20 02:26:46;;;;;;;94.07;24.60;;;;;;;0.13;100.00;101207.00;5232635;28;20032;-76
2023/01/20 02:30:11;;;;;;;84.63;23.88;;;;;;;0.11;100.00;101216.81;5245998;28;20489;-76
2023/01/20 02:33:13;;;;;;;90.38;24.85;;;;;;;0.10;100.00;101204.56;5245842;28;20051;-76
2023/01/20 02:35:52;;;;;;;;;;;;;;;0.06;100.00;101208.31;5247890;28;20028;-77
2023/01/20 02:38:30;;;;;;;85.43;23.70;;;;;;;0.07;100.00;101207.38;5246796;28;19908;-76
2023/01/20 02:41:06;;;;;;;89.80;27.98;;;;;;;0.05;100.00;101203.13;5247068;28;20032;-76
2023/01/20 02:43:59;;;;;;;103.90;26.30;;;;;;;0.00;100.00;101206.06;5245667;28;20037;-76
2023/01/20 02:46:40;;;;;;;102.95;29.80;;;;;;;-0.01;100.00;101209.59;5245550;28;20035;-76
2023/01/20 02:49:26;;;;;;;95.07;24.73;;;;;;;0.00;100.00;101211.31;5250182;28;20024;-76
2023/01/20 02:52:06;;;;;;;90.03;25.20;;;;;;;0.02;100.00;101213.88;5267388;28;20032;-76
2023/01/20 02:54:40;;;;;;;92.53;25.85;;;;;;;0.04;100.00;101206.69;5258557;28;20028;-76
2023/01/20 02:57:15;;;;;;;86.32;24.35;;;;;;;0.04;100.00;101215.47;5249538;28;20031;-76
2023/01/20 02:59:52;;;;;;;111.28;27.92;;;;;;;-0.02;100.00;101208.75;5276447;28;20055;-76
2023/01/20 03:02:26;;;;;;;100.13;26.67;;;;;;;0.02;100.00;101211.22;5253111;28;20020;-76
2023/01/20 03:05:03;;;;;;;93.53;26.55;;;;;;;-0.03;100.00;101211.50;5266414;28;20028;-76
2023/01/20 03:07:36;;;;;;;85.57;23.60;;;;;;;0.01;100.00;101220.94;5257806;28;20112;-76
2023/01/20 03:10:12;;;;;;;100.47;25.42;;;;;;;-0.06;100.00;101222.22;5246457;28;20024;-76
2023/01/20 03:12:47;;;;;;;92.32;24.75;;;;;;;-0.10;100.00;101221.56;5248397;28;20111;-76
2023/01/20 03:15:23;;;;;;;98.20;26.08;;;;;;;-0.08;100.00;101229.38;5247501;28;20020;-76
2023/01/20 03:17:53;;;;;;;96.35;27.55;;;;;;;-0.08;100.00;101229.38;5246558;28;20035;-76
2023/01/20 03:20:24;;;;;;;84.60;24.50;;;;;;;-0.03;100.00;101219.41;5246359;28;20388;-76
2023/01/20 03:22:54;;;;;;;95.50;25.98;;;;;;;-0.05;100.00;101218.63;5247053;28;20024;-76
2023/01/20 03:25:25;;;;;;;92.03;24.20;;;;;;;-0.10;100.00;101225.97;5267405;28;20434;-76
2023/01/20 03:27:56;;;;;;;85.15;23.80;;;;;;;-0.08;100.00;101229.38;5250804;28;20480;-76
2023/01/20 03:30:26;;;;;;;87.13;24.58;;;;;;;-0.11;100.00;101232.16;5246129;28;20035;-76
2023/01/20 03:32:58;;;;;;;83.53;24.48;;;;;;;-0.05;100.00;101237.09;5258252;28;20103;-76
2023/01/20 03:35:29;;;;;;;93.53;25.45;;;;;;;-0.03;100.00;101235.22;5245250;28;20043;-76
2023/01/20 03:38:00;;;;;;;101.43;27.15;;;;;;;-0.07;100.00;101244.25;5259113;28;20024;-76
2023/01/20 03:40:36;;;;;;;98.57;28.02;;;;;;;-0.08;100.00;101237.28;5245565;28;20545;-76
2023/01/20 03:43:19;;;;;;;93.45;25.50;;;;;;;-0.09;100.00;101233.81;5244780;28;20489;-75
2023/01/20 03:46:00;;;;;;;93.63;26.48;;;;;;;-0.09;100.00;101236.44;5244393;28;20020;-75
2023/01/20 03:48:49;;;;;;;100.90;24.98;;;;;;;-0.09;100.00;101231.16;5245496;28;20082;-75
2023/01/20 03:51:58;;;;;;;96.40;26.07;;;;;;;-0.14;100.00;101235.84;5245349;28;20020;-75
2023/01/20 03:54:53;;;;;;;86.72;27.10;;;;;;;-0.19;100.00;101237.91;5245344;28;20039;-75
2023/01/20 03:57:40;;;;;;;94.30;25.27;;;;;;;-0.24;100.00;101236.47;5248223;28;20016;-75
2023/01/20 04:00:12;;;;;;;89.50;26.40;;;;;;;-0.23;100.00;101240.81;5251135;28;20021;-75
2023/01/20 04:02:42;;;;;;;90.88;26.48;;;;;;;-0.27;100.00;101232.22;5253521;28;20020;-75
2023/01/20 04:05:13;;;;;;;85.65;24.67;;;;;;;-0.26;100.00;101233.91;5249733;28;20091;-75
2023/01/20 04:07:45;;;;;;;88.07;23.98;;;;;;;-0.28;100.00;101241.06;5255105;28;20122;-75
2023/01/20 04:10:16;;;;;;;99.95;27.73;;;;;;;-0.24;100.00;101247.03;5248184;28;20020;-75
2023/01/20 04:12:47;;;;;;;91.63;25.02;;;;;;;-0.24;100.00;101239.09;5256803;28;20032;-75
2023/01/20 04:15:19;;;;;;;92.65;24.38;;;;;;;-0.27;100.00;101242.75;5254333;28;20536;-75
2023/01/20 04:17:49;;;;;;;93.55;24.95;;;;;;;-0.27;100.00;101243.59;5252819;28;20116;-75
2023/01/20 04:20:23;;;;;;;81.43;24.02;;;;;;;-0.28;100.00;101239.28;5244807;28;20099;-75
2023/01/20 04:22:57;;;;;;;88.13;24.25;;;;;;;-0.30;100.00;101230.63;5244896;28;20017;-75
2023/01/20 04:25:31;;;;;;;83.68;24.55;;;;;;;-0.36;100.00;101233.56;5245085;28;20101;-75
2023/01/20 04:28:01;;;;;;;90.30;25.35;;;;;;;-0.40;100.00;101234.72;5244177;28;20028;-75
2023/01/20 04:30:32;;;;;;;87.72;24.75;;;;;;;-0.42;100.00;101230.44;5244913;28;20071;-75
2023/01/20 04:33:02;;;;;;;94.10;27.08;;;;;;;-0.42;100.00;101233.91;5244816;28;20032;-75
2023/01/20 04:35:32;;;;;;;97.75;26.33;;;;;;;-0.42;100.00;101236.56;5244868;28;20028;-75
2023/01/20 04:38:03;;;;;;;95.63;26.30;;;;;;;-0.39;100.00;101236.41;5244286;28;20108;-75
2023/01/20 04:40:34;;;;;;;93.25;26.33;;;;;;;-0.40;100.00;101244.38;5244817;28;20025;-75
2023/01/20 04:43:04;;;;;;;87.57;23.70;;;;;;;-0.38;100.00;101251.28;5245209;28;20032;-75
2023/01/20 04:45:35;;;;;;;92.65;26.35;;;;;;;-0.37;100.00;101245.06;5243570;28;20077;-74
2023/01/20 04:48:06;;;;;;;89.45;25.60;;;;;;;-0.36;100.00;101253.81;5244518;28;20481;-75
2023/01/20 04:50:38;;;;;;;89.55;25.98;;;;;;;-0.37;100.00;101245.06;5256633;28;20099;-75
2023/01/20 04:53:12;;;;;;;94.63;25.98;;;;;;;-0.36;100.00;101252.03;5244669;28;20096;-75
2023/01/20 04:55:43;;;;;;;91.30;25.90;;;;;;;-0.34;100.00;101258.06;5244793;28;20029;-74
2023/01/20 04:58:13;;;;;;;86.18;23.52;;;;;;;-0.32;100.00;101255.34;5254393;28;20024;-75
2023/01/20 05:00:44;;;;;;;88.15;25.08;;;;;;;-0.30;100.00;101253.50;5244119;28;20144;-75
2023/01/20 05:03:14;;;;;;;90.63;23.95;;;;;;;-0.28;100.00;101248.97;5256240;28;20513;-75
2023/01/20 05:05:53;;;;;;;87.78;25.77;;;;;;;-0.31;100.00;101239.44;5258447;28;20388;-75
2023/01/20 05:08:23;;;;;;;97.80;26.15;;;;;;;-0.32;100.00;101245.66;5244015;28;20396;-75
2023/01/20 05:10:54;;;;;;;98.13;24.95;;;;;;;-0.29;100.00;101242.00;5244196;28;20048;-75
2023/01/20 05:13:24;;;;;;;85.25;25.25;;;;;;;-0.29;100.00;101244.66;5243748;28;20024;-75
2023/01/20 05:15:55;;;;;;;100.25;27.02;;;;;;;-0.27;100.00;101250.66;5260682;28;20073;-74
2023/01/20 05:18:25;;;;;;;89.25;25.05;;;;;;;-0.29;100.00;101253.41;5251319;28;20073;-75
2023/01/20 05:20:56;;;;;;;89.50;26.95;;;;;;;-0.27;100.00;101251.50;5248355;28;20059;-75
2023/01/20 05:23:26;;;;;;;103.38;25.05;;;;;;;-0.26;100.00;101255.84;5260710;28;20430;-75
2023/01/20 05:25:56;;;;;;;91.13;26.30;;;;;;;-0.29;100.00;101256.03;5248216;28;20028;-75
2023/01/20 05:28:27;;;;;;;99.25;26.98;;;;;;;-0.28;100.00;101256.88;5247866;28;20400;-75
2023/01/20 05:30:57;;;;;;;89.80;25.75;;;;;;;-0.26;100.00;101257.63;5247922;28;20040;-75
2023/01/20 05:33:28;;;;;;;92.55;27.05;;;;;;;-0.26;100.00;101262.91;5246927;28;20499;-75
2023/01/20 05:35:58;;;;;;;95.00;26.70;;;;;;;-0.26;100.00;101262.91;5247966;28;20028;-75
2023/01/20 05:38:29;;;;;;;104.05;26.90;;;;;;;-0.27;100.00;101269.97;5247707;28;20016;-75
2023/01/20 05:41:04;;;;;;;106.28;28.58;;;;;;;-0.23;100.00;101269.81;5247728;28;20055;-75
2023/01/20 05:43:36;;;;;;;83.50;26.15;;;;;;;-0.24;100.00;101271.59;5246762;28;20537;-75
2023/01/20 05:46:06;;;;;;;88.15;24.33;;;;;;;-0.24;100.00;101266.31;5247785;28;20029;-75
2023/01/20 05:48:37;;;;;;;100.05;25.80;;;;;;;-0.20;100.00;101267.84;5247411;28;20702;-75
2023/01/20 05:51:07;;;;;;;99.35;28.15;;;;;;;-0.21;100.00;101276.69;5247243;28;20032;-75
2023/01/20 05:53:37;;;;;;;94.75;27.75;;;;;;;-0.16;100.00;101266.72;5247607;28;20481;-75
2023/01/20 05:56:10;;;;;;;101.13;29.27;;;;;;;-0.14;100.00;101269.28;5247836;28;20025;-75
2023/01/20 05:58:41;;;;;;;106.25;29.98;;;;;;;-0.12;100.00;101268.25;5250163;28;20020;-75
2023/01/20 06:01:13;;;;;;;109.22;32.03;;;;;;;-0.14;100.00;101264.88;5260384;28;20081;-75
2023/01/20 06:03:43;;;;;;;116.32;30.88;;;;;;;-0.11;100.00;101263.81;5259743;28;20028;-75
2023/01/20 06:06:16;;;;;;;121.07;32.45;;;;;;;-0.09;100.00;101259.31;5246341;28;20491;-75
2023/01/20 06:08:48;;;;;;;111.15;32.47;;;;;;;-0.10;100.00;101257.59;5245999;28;20033;-75
2023/01/20 06:11:19;;;;;;;107.78;33.15;;;;;;;-0.09;100.00;101251.41;5246055;28;20024;-75
2023/01/20 06:13:49;;;;;;;111.60;31.85;;;;;;;-0.07;100.00;101257.44;5246998;28;20027;-75
2023/01/20 06:16:20;;;;;;;104.57;32.05;;;;;;;-0.04;100.00;101258.13;5262807;28;20020;-75
2023/01/20 06:18:50;;;;;;;114.57;31.63;;;;;;;-0.01;100.00;101257.06;5247238;28;20119;-75
2023/01/20 06:21:21;;;;;;;109.63;31.65;;;;;;;-0.03;100.00;101259.81;5245821;28;20027;-75
2023/01/20 06:23:52;;;;;;;120.78;32.10;;;;;;;0.00;100.00;101256.16;5247293;28;20044;-75
2023/01/20 06:26:22;;;;;;;108.80;29.98;;;;;;;0.03;100.00;101258.63;5245731;28;20025;-74
2023/01/20 06:28:57;;;;;;;118.00;31.70;;;;;;;0.03;100.00;101249.84;5257551;28;20028;-75
2023/01/20 06:31:27;;;;;;;108.60;30.15;;;;;;;0.03;100.00;101255.13;5249237;28;20024;-75
2023/01/20 06:33:58;;;;;;;89.32;26.50;;;;;;;0.03;100.00;101260.41;5247224;28;20020;-75
2023/01/20 06:36:28;;;;;;;87.97;23.85;;;;;;;0.02;100.00;101267.47;5246547;28;20099;-75
2023/01/20 06:38:59;;;;;;;87.78;26.70;;;;;;;0.02;100.00;101271.91;5258889;28;20020;-75
2023/01/20 06:41:29;;;;;;;112.85;31.35;;;;;;;0.06;100.00;101282.19;5246838;28;20035;-75
2023/01/20 06:44:00;;;;;;;97.60;28.75;;;;;;;0.09;100.00;101276.72;5246909;28;20052;-75
2023/01/20 06:46:30;;;;;;;96.70;28.08;;;;;;;0.09;100.00;101276.72;5246555;28;20032;-75
2023/01/20 06:49:01;;;;;;;97.80;30.58;;;;;;;0.06;100.00;101263.72;5246688;28;20058;-75
2023/01/20 06:51:32;;;;;;;115.47;31.70;;;;;;;0.11;100.00;101277.50;5246214;28;20036;-75
2023/01/20 06:54:02;;;;;;;114.57;33.28;;;;;;;0.09;100.00;101279.34;5260037;28;20052;-75
2023/01/20 06:56:33;;;;;;;103.00;31.02;;;;;;;0.11;100.00;101277.50;5246353;28;20079;-75
2023/01/20 06:59:03;;;;;;;95.85;30.02;;;;;;;0.14;100.00;101273.81;5246290;28;20035;-75
2023/01/20 07:01:34;;;;;;;90.65;29.65;;;;;;;0.14;100.00;101272.03;5246201;28;20103;-75
2023/01/20 07:04:05;;;;;;;98.22;29.42;;;;;;;0.10;100.00;101274.91;5246218;28;20032;-75
2023/01/20 07:06:37;;;;;;;85.32;25.58;;;;;;;0.15;100.00;101281.66;5245856;28;20095;-75
2023/01/20 07:09:11;;;;;;;78.63;25.55;;;;;;;0.15;100.00;101293.97;5246541;28;20025;-75
2023/01/20 07:11:41;;;;;;;101.38;25.75;;;;;;;0.16;100.00;101293.06;5259409;28;20016;-75
2023/01/20 07:14:11;;;;;;;79.13;25.33;;;;;;;0.17;100.00;101285.06;5256034;28;20077;-75
2023/01/20 07:16:42;;;;;;;77.78;23.20;;;;;;;0.20;100.00;101287.53;5247078;28;20438;-75
2023/01/20 07:19:12;;;;;;;75.22;24.77;;;;;;;0.23;100.00;101295.25;5246297;28;20396;-76
2023/01/20 07:21:43;;;;;;;75.07;21.67;;;;;;;0.20;100.00;101287.53;5245847;28;20396;-76
2023/01/20 07:24:13;;;;;;;72.50;22.50;;;;;;;0.17;100.00;101287.69;5245081;28;20032;-75
2023/01/20 07:26:44;;;;;;;73.15;22.38;;;;;;;0.23;100.00;101297.88;5244069;28;20078;-76
2023/01/20 07:29:14;;;;;;;72.30;24.20;;;;;;;0.24;100.00;101294.28;5246096;28;20043;-75
2023/01/20 07:31:45;;;;;;;67.00;22.73;;;;;;;0.32;100.00;101307.06;5245293;28;20111;-75
2023/01/20 07:34:15;;;;;;;69.32;23.63;;;;;;;0.31;100.00;101305.38;5244590;28;20480;-76
2023/01/20 07:36:46;;;;;;;67.22;21.58;;;;;;;0.32;100.00;101308.84;5245483;28;20017;-76
2023/01/20 07:39:18;;;;;;;65.00;20.13;;;;;;;0.32;100.00;101314.97;5244773;28;20024;-75
2023/01/20 07:41:49;;;;;;;75.55;22.17;;;;;;;0.35;100.00;101319.22;5245580;28;20016;-75
2023/01/20 07:44:19;;;;;;;71.50;22.73;;;;;;;0.37;100.00;101328.75;5249295;28;20035;-76
2023/01/20 07:46:50;;;;;;;71.18;22.63;;;;;;;0.38;100.00;101319.03;5255491;28;20115;-75
2023/01/20 07:49:21;;;;;;;74.45;26.10;;;;;;;0.41;100.00;101340.00;5245453;28;20113;-75
2023/01/20 07:51:51;;;;;;;82.53;23.42;;;;;;;0.34;100.00;101328.06;5243701;28;20032;-75
2023/01/20 07:54:22;;;;;;;76.45;22.50;;;;;;;0.27;100.00;101334.66;5257756;28;20103;-75
2023/01/20 07:56:52;;;;;;;86.82;26.08;;;;;;;0.19;100.00;101335.94;5258690;28;20503;-75
2023/01/20 07:59:23;;;;;;;78.13;24.05;;;;;;;0.18;100.00;101331.59;5257055;28;20077;-75
2023/01/20 08:01:54;;;;;;;72.60;24.40;;;;;;;0.18;100.00;101336.03;5247068;28;20020;-76
2023/01/20 08:04:24;;;;;;;85.32;25.23;;;;;;;0.16;100.00;101332.63;5256785;28;20400;-75
2023/01/20 08:06:55;;;;;;;81.18;24.48;;;;;;;0.13;100.00;101327.53;5244618;28;20025;-75
2023/01/20 08:09:26;;;;;;;91.53;26.10;;;;;;;0.09;100.00;101336.56;5242912;28;20051;-76
2023/01/20 08:11:56;;;;;;;80.72;23.95;;;;;;;0.07;100.00;101339.28;5244961;28;20025;-75
2023/01/20 08:14:27;;;;;;;90.43;26.83;;;;;;;0.04;100.00;101335.97;5245344;28;20070;-76
2023/01/20 08:16:59;;;;;;;84.40;27.00;;;;;;;-0.01;100.00;101329.16;5258813;28;20032;-76
2023/01/20 08:19:29;;;;;;;96.90;26.02;;;;;;;-0.05;100.00;101326.78;5255911;28;20028;-76
2023/01/20 08:21:59;;;;;;;88.07;26.27;;;;;;;-0.10;100.00;101328.81;5243752;28;20028;-76
2023/01/20 08:24:30;;;;;;;90.47;26.48;;;;;;;-0.14;100.00;101329.94;5242830;28;20029;-76
2023/01/20 08:27:01;;;;;;;97.47;28.33;;;;;;;-0.09;100.00;101338.47;5243354;28;20020;-77
2023/01/20 08:29:32;;;;;;;98.93;28.17;;;;;;;-0.13;100.00;101342.19;5243111;28;20028;-76
2023/01/20 08:32:02;;;;;;;103.47;28.42;;;;;;;-0.17;100.00;101345.94;5252905;28;20035;-76
2023/01/20 08:34:33;;;;;;;102.25;29.20;;;;;;;-0.17;100.00;101349.41;5251128;28;20028;-76
2023/01/20 08:37:04;;;;;;;94.13;26.95;;;;;;;-0.18;100.00;101344.25;5253682;28;20074;-76
2023/01/20 08:39:34;;;;;;;103.43;28.92;;;;;;;-0.17;100.00;101335.38;5247976;28;20416;-77
2023/01/20 08:42:04;;;;;;;93.55;27.38;;;;;;;-0.16;100.00;101340.56;5253287;28;20048;-76
2023/01/20 08:44:35;;;;;;;95.60;27.63;;;;;;;-0.07;100.00;101344.47;5244872;28;20028;-76
2023/01/20 08:47:06;;;;;;;91.57;27.40;;;;;;;-0.04;100.00;101346.97;5246925;28;20358;-76
2023/01/20 08:49:36;;;;;;;101.20;26.83;;;;;;;-0.06;100.00;101341.75;5242736;28;20074;-75
2023/01/20 08:52:06;;;;;;;96.00;27.20;;;;;;;-0.06;100.00;101339.09;5242406;28;20534;-76
2023/01/20 08:54:37;;;;;;;99.70;29.48;;;;;;;-0.06;100.00;101339.09;5243781;28;20020;-77
2023/01/20 08:57:07;;;;;;;118.25;31.13;;;;;;;-0.04;100.00;101344.31;5243048;28;20495;-76
2023/01/20 08:59:38;;;;;;;100.93;30.30;;;;;;;-0.02;100.00;101340.66;5254941;28;20419;-76
2023/01/20 09:02:09;;;;;;;102.88;28.73;;;;;;;-0.03;100.00;101343.38;5251386;28;20430;-77
2023/01/20 09:04:40;;;;;;;95.88;28.80;;;;;;;0.05;100.00;101343.81;5252805;28;20024;-77
2023/01/20 09:07:11;;;;;;;107.28;28.60;;;;;;;0.04;100.00;101344.72;5244114;28;20370;-77
2023/01/20 09:09:42;;;;;;;105.85;29.25;;;;;;;0.07;100.00;101344.56;5244562;28;20473;-77
2023/01/20 09:12:13;;;;;;;111.15;30.10;;;;;;;0.08;100.00;101348.91;5244342;28;20044;-77
2023/01/20 09:14:43;;;;;;;110.30;31.10;;;;;;;0.17;100.00;101356.28;5246905;28;20046;-77
2023/01/20 09:17:14;;;;;;;102.63;27.92;;;;;;;0.18;100.00;101349.22;5242695;28;20384;-77
2023/01/20 09:19:44;;;;;;;109.13;30.50;;;;;;;0.20;100.00;101347.34;5244078;28;20025;-77
2023/01/20 09:22:14;;;;;;;101.10;29.42;;;;;;;0.22;100.00;101356.88;5244183;28;20024;-77
2023/01/20 09:24:45;;;;;;;104.00;29.60;;;;;;;0.34;100.00;101357.97;5244436;28;20104;-77
2023/01/20 09:27:16;;;;;;;99.13;29.20;;;;;;;0.41;100.00;101350.56;5243913;28;20062;-77
2023/01/20 09:29:47;;;;;;;105.18;31.23;;;;;;;0.52;100.00;101354.25;5247185;28;20059;-77
2023/01/20 09:32:17;;;;;;;96.57;29.25;;;;;;;0.60;100.00;101359.09;5254045;28;20413;-77
2023/01/20 09:34:47;;;;;;;100.05;31.00;;;;;;;0.70;100.00;101368.19;5243330;28;20111;-77
2023/01/20 09:46:36;;;;;;;74.13;26.40;;;;;;;1.00;100.00;101356.72;5257424;28;20028;-77
2023/01/20 09:55:52;;;;;;;81.93;25.85;;;;;;;1.02;100.00;101352.22;5243845;28;20103;-77
2023/01/20 09:58:57;;;;;;;81.00;26.17;;;;;;;1.13;100.00;101362.97;5253427;28;20024;-77
2023/01/20 10:01:53;;;;;;;68.47;25.25;;;;;;;1.15;100.00;101358.44;5243384;28;20103;-77
2023/01/20 10:04:31;;;;;;;71.38;25.73;;;;;;;1.25;100.00;101367.50;5247903;28;20506;-77
2023/01/20 10:07:10;;;;;;;76.38;24.75;;;;;;;1.32;100.00;101362.72;5245759;28;20581;-76
2023/01/20 10:09:51;;;;;;;65.45;23.55;;;;;;;1.34;100.00;101368.75;5246498;28;20029;-76
2023/01/20 10:12:50;;;;;;;115.85;37.95;;;;;;;1.37;100.00;101368.56;5247035;28;20028;-76
2023/01/20 10:15:28;;;;;;;59.30;22.25;;;;;;;1.45;100.00;101368.06;5254932;28;20020;-76
2023/01/20 10:18:20;;;;;;;67.03;23.13;;;;;;;1.48;100.00;101365.25;5252322;28;20103;-75
2023/01/20 10:21:03;;;;;;;113.28;43.42;;;;;;;1.52;100.00;101366.78;5245709;28;20024;-76
2023/01/20 10:23:45;;;;;;;53.90;18.80;;;;;;;1.56;100.00;101368.28;5247193;28;20016;-76
2023/01/20 10:26:17;;;;;;;49.75;20.40;;;;;;;1.59;100.00;101361.94;5246842;28;20657;-76
2023/01/20 10:29:10;;;;;;;59.42;22.77;;;;;;;1.69;100.00;101366.53;5247142;28;20107;-76
2023/01/20 10:31:52;;;;;;;72.63;28.65;;;;;;;1.77;100.00;101364.28;5253585;28;20036;-76
2023/01/20 10:34:24;;;;;;;129.80;45.15;;;;;;;1.82;100.00;101371.94;5251839;28;20445;-77
2023/01/20 10:37:04;;;;;;;47.03;18.48;;;;;;;1.87;100.00;101358.41;5246125;28;20039;-77
2023/01/20 10:39:55;;;;;;;107.35;42.13;;;;;;;1.99;100.00;101362.91;5245319;28;20340;-77
2023/01/20 10:42:27;;;;;;;58.53;20.17;;;;;;;2.05;100.00;101366.00;5245565;28;20036;-77
2023/01/20 10:44:58;;;;;;;54.70;18.42;;;;;;;2.09;100.00;101371.94;5245715;28;20031;-78
2023/01/20 10:47:40;;;;;;;48.35;21.20;;;;;;;2.16;100.00;101375.91;5244418;28;20090;-77
2023/01/20 10:50:29;;;;;;;40.13;16.55;;;;;;;2.15;100.00;101360.13;5244213;28;20031;-77
2023/01/20 10:53:03;;;;;;;44.42;17.45;;;;;;;2.14;100.00;101350.47;5245448;28;20028;-77
2023/01/20 10:55:33;;;;;;;42.22;16.63;;;;;;;2.14;100.00;101361.91;5245570;28;20563;-77
2023/01/20 10:58:13;;;;;;;39.95;15.93;;;;;;;2.15;100.00;101363.59;5243976;28;20078;-77
2023/01/20 11:00:43;;;;;;;43.45;15.30;;;;;;;2.17;100.00;101369.66;5259567;28;20052;-76
2023/01/20 11:03:18;;;;;;;48.80;18.67;;;;;;;2.13;100.00;101370.81;5245248;28;20051;-77
2023/01/20 11:05:50;;;;;;;45.17;18.02;;;;;;;2.11;100.00;101375.38;5245392;28;20081;-76
2023/01/20 11:08:29;;;;;;;49.33;19.13;;;;;;;2.11;100.00;101383.31;5243442;28;20029;-77
2023/01/20 11:11:10;;;;;;;37.75;15.93;;;;;;;2.12;100.00;101374.41;5243970;28;20121;-76
2023/01/20 11:13:41;;;;;;;48.38;16.95;;;;;;;2.13;100.00;101376.09;5243368;28;20408;-77
2023/01/20 11:16:17;;;;;;;44.22;16.65;;;;;;;2.14;100.00;101375.16;5260510;28;20088;-77
2023/01/20 11:18:55;;;;;;;44.80;16.67;;;;;;;2.12;100.00;101379.72;5244648;28;20048;-77
2023/01/20 11:21:29;;;;;;;42.85;16.40;;;;;;;2.16;100.00;101386.50;5245061;28;20037;-76
2023/01/20 11:24:00;;;;;;;42.80;17.88;;;;;;;2.23;100.00;101408.97;5245148;28;20017;-76
2023/01/20 11:26:36;;;;;;;40.28;14.43;;;;;;;2.29;100.00;101428.91;5249716;28;20055;-76
2023/01/20 11:29:09;;;;;;;37.80;16.17;;;;;;;2.14;100.00;101414.00;5252513;28;20396;-77
2023/01/20 11:31:46;;;;;;;35.25;15.55;;;;;;;1.96;100.00;101408.09;5245353;28;20044;-78
2023/01/20 11:34:28;;;;;;;32.80;15.57;;;;;;;1.61;100.00;101419.09;5244656;28;20027;-77
2023/01/20 11:37:04;;;;;;;33.78;15.00;;;;;;;1.50;100.00;101419.72;5244193;28;20060;-77
2023/01/20 11:39:54;;;;;;;27.88;13.13;;;;;;;1.37;100.00;101425.88;5244130;28;20020;-77
2023/01/20 11:42:27;;;;;;;22.50;12.20;;;;;;;1.22;100.00;101404.72;5242756;28;20032;-76
2023/01/20 11:45:00;;;;;;;30.92;16.10;;;;;;;1.11;100.00;101399.22;5244465;28;20077;-76
2023/01/20 11:47:36;;;;;;;33.33;17.00;;;;;;;1.07;100.00;101396.84;5242842;28;20047;-76
2023/01/20 11:50:06;;;;;;;29.13;14.43;;;;;;;1.10;100.00;101394.84;5244995;28;20020;-77
2023/01/20 11:52:42;;;;;;;27.58;13.60;;;;;;;1.18;100.00;101407.63;5244992;28;20032;-76